KLIC/LIC METAR and TAF weather

Enter ICAO airport designator
Station Type Date Time Source
KLIC METAR 2019/10/23 01:55 UTC NOAA

KLIC 230155Z AUTO 18003KT 10SM OVC110 09/M08 A3001 RMK AO2 SLP161 T00941083


Station Type Date Time Source
KLIC Decoded METAR 2019/10/23 01:55 UTC NOAA

LIMON MUNICIPAL AIRPORT, CO, United States (KLIC) 39-16N 103-40W 1630M
Oct 22, 2019 - 09:55 PM EDT / 2019.10.23 0155 UTC
Wind: from the S (180 degrees) at 3 MPH (3 KT):0
Visibility: 10 mile(s):0
Sky conditions: overcast
Temperature: 48.9 F (9.4 C)
Dew Point: 17.1 F (-8.3 C)
Relative Humidity: 27%
Pressure (altimeter): 30.01 in. Hg (1016 hPa)
ob: KLIC 230155Z AUTO 18003KT 10SM OVC110 09/M08 A3001 RMK AO2 SLP161 T00941083
cycle: 2

Station Type Date Time Source
KLIC TAF UTC NOAA

Error!

Example: see airport list